sensor_id;sensor_type;location;lat;lon;timestamp;P1;durP1;ratioP1;P2;durP2;ratioP2
70829;SDS011;58451;51.550;7.208;2023-02-28T00:00:06;17.90;;;7.00;;
70829;SDS011;58451;51.550;7.208;2023-02-28T00:01:45;20.00;;;7.50;;
70829;SDS011;58451;51.550;7.208;2023-02-28T00:03:17;21.40;;;7.80;;
70829;SDS011;58451;51.550;7.208;2023-02-28T00:04:49;19.80;;;7.70;;
70829;SDS011;58451;51.550;7.208;2023-02-28T00:06:24;18.30;;;7.70;;
70829;SDS011;58451;51.550;7.208;2023-02-28T00:07:56;20.30;;;8.00;;
70829;SDS011;58451;51.550;7.208;2023-02-28T00:09:28;23.40;;;9.00;;
70829;SDS011;58451;51.550;7.208;2023-02-28T00:11:11;21.60;;;8.50;;
70829;SDS011;58451;51.550;7.208;2023-02-28T00:12:44;23.00;;;9.40;;
70829;SDS011;58451;51.550;7.208;2023-02-28T00:14:16;23.80;;;9.70;;
70829;SDS011;58451;51.550;7.208;2023-02-28T00:15:58;21.30;;;9.30;;
70829;SDS011;58451;51.550;7.208;2023-02-28T00:17:35;23.00;;;9.00;;
70829;SDS011;58451;51.550;7.208;2023-02-28T00:19:07;21.70;;;8.90;;
70829;SDS011;58451;51.550;7.208;2023-02-28T00:20:39;22.40;;;9.20;;
70829;SDS011;58451;51.550;7.208;2023-02-28T00:22:11;21.70;;;8.90;;
70829;SDS011;58451;51.550;7.208;2023-02-28T00:23:43;20.80;;;8.80;;
70829;SDS011;58451;51.550;7.208;2023-02-28T00:25:18;23.30;;;9.70;;
70829;SDS011;58451;51.550;7.208;2023-02-28T00:26:51;24.30;;;10.00;;
70829;SDS011;58451;51.550;7.208;2023-02-28T00:28:24;23.80;;;10.30;;
70829;SDS011;58451;51.550;7.208;2023-02-28T00:29:56;27.70;;;11.10;;
70829;SDS011;58451;51.550;7.208;2023-02-28T00:31:27;24.30;;;10.50;;
70829;SDS011;58451;51.550;7.208;2023-02-28T00:33:00;22.40;;;9.60;;
70829;SDS011;58451;51.550;7.208;2023-02-28T00:34:32;24.20;;;9.20;;
70829;SDS011;58451;51.550;7.208;2023-02-28T00:36:10;21.10;;;9.40;;
70829;SDS011;58451;51.550;7.208;2023-02-28T00:37:43;20.70;;;8.70;;
70829;SDS011;58451;51.550;7.208;2023-02-28T00:39:19;26.10;;;10.10;;
70829;SDS011;58451;51.550;7.208;2023-02-28T00:40:52;21.30;;;9.30;;
70829;SDS011;58451;51.550;7.208;2023-02-28T00:42:25;24.50;;;9.70;;
70829;SDS011;58451;51.550;7.208;2023-02-28T00:43:57;21.40;;;9.50;;
70829;SDS011;58451;51.550;7.208;2023-02-28T00:45:29;22.60;;;9.10;;
70829;SDS011;58451;51.550;7.208;2023-02-28T00:47:02;22.20;;;9.60;;
70829;SDS011;58451;51.550;7.208;2023-02-28T00:48:34;18.90;;;8.10;;
70829;SDS011;58451;51.550;7.208;2023-02-28T00:50:09;21.10;;;8.40;;
70829;SDS011;58451;51.550;7.208;2023-02-28T00:51:41;20.90;;;7.50;;
70829;SDS011;58451;51.550;7.208;2023-02-28T00:53:13;17.50;;;7.20;;
70829;SDS011;58451;51.550;7.208;2023-02-28T00:54:45;18.20;;;6.90;;
70829;SDS011;58451;51.550;7.208;2023-02-28T00:56:18;16.40;;;6.30;;
70829;SDS011;58451;51.550;7.208;2023-02-28T00:57:51;15.80;;;6.80;;
70829;SDS011;58451;51.550;7.208;2023-02-28T00:59:23;14.80;;;5.50;;
70829;SDS011;58451;51.550;7.208;2023-02-28T01:00:55;15.80;;;6.10;;
70829;SDS011;58451;51.550;7.208;2023-02-28T01:02:27;14.00;;;5.30;;
70829;SDS011;58451;51.550;7.208;2023-02-28T01:03:59;15.60;;;5.40;;
70829;SDS011;58451;51.550;7.208;2023-02-28T01:05:31;16.20;;;5.50;;
70829;SDS011;58451;51.550;7.208;2023-02-28T01:07:03;15.10;;;5.20;;
70829;SDS011;58451;51.550;7.208;2023-02-28T01:08:34;11.70;;;4.70;;
70829;SDS011;58451;51.550;7.208;2023-02-28T01:10:07;14.70;;;5.30;;
70829;SDS011;58451;51.550;7.208;2023-02-28T01:11:41;14.80;;;5.20;;
70829;SDS011;58451;51.550;7.208;2023-02-28T01:13:15;17.20;;;5.30;;
70829;SDS011;58451;51.550;7.208;2023-02-28T01:14:48;17.70;;;5.50;;
70829;SDS011;58451;51.550;7.208;2023-02-28T01:16:20;16.30;;;5.70;;
70829;SDS011;58451;51.550;7.208;2023-02-28T01:17:56;17.20;;;6.10;;
70829;SDS011;58451;51.550;7.208;2023-02-28T01:19:28;14.20;;;5.40;;
70829;SDS011;58451;51.550;7.208;2023-02-28T01:21:05;15.00;;;5.30;;
70829;SDS011;58451;51.550;7.208;2023-02-28T01:22:38;13.90;;;4.90;;
70829;SDS011;58451;51.550;7.208;2023-02-28T01:24:12;15.50;;;5.40;;
70829;SDS011;58451;51.550;7.208;2023-02-28T01:25:44;13.70;;;4.70;;
70829;SDS011;58451;51.550;7.208;2023-02-28T01:27:16;14.00;;;4.90;;
70829;SDS011;58451;51.550;7.208;2023-02-28T01:28:50;14.10;;;4.60;;
70829;SDS011;58451;51.550;7.208;2023-02-28T01:30:23;13.10;;;5.00;;
70829;SDS011;58451;51.550;7.208;2023-02-28T01:31:55;14.70;;;4.80;;
70829;SDS011;58451;51.550;7.208;2023-02-28T01:33:28;13.90;;;4.20;;
70829;SDS011;58451;51.550;7.208;2023-02-28T01:35:01;15.00;;;4.70;;
70829;SDS011;58451;51.550;7.208;2023-02-28T01:36:33;13.10;;;3.80;;
70829;SDS011;58451;51.550;7.208;2023-02-28T01:38:05;12.60;;;4.10;;
70829;SDS011;58451;51.550;7.208;2023-02-28T01:39:52;13.30;;;4.10;;
70829;SDS011;58451;51.550;7.208;2023-02-28T01:41:28;13.20;;;4.60;;
70829;SDS011;58451;51.550;7.208;2023-02-28T01:43:18;12.00;;;4.20;;
70829;SDS011;58451;51.550;7.208;2023-02-28T01:46:57;13.10;;;4.50;;
70829;SDS011;58451;51.550;7.208;2023-02-28T01:48:35;11.70;;;4.30;;
70829;SDS011;58451;51.550;7.208;2023-02-28T01:50:15;11.30;;;4.00;;
70829;SDS011;58451;51.550;7.208;2023-02-28T01:51:52;12.90;;;4.40;;
70829;SDS011;58451;51.550;7.208;2023-02-28T01:53:32;13.80;;;4.80;;
70829;SDS011;58451;51.550;7.208;2023-02-28T01:55:10;13.10;;;4.60;;
70829;SDS011;58451;51.550;7.208;2023-02-28T01:57:05;13.20;;;4.70;;
70829;SDS011;58451;51.550;7.208;2023-02-28T01:58:41;15.50;;;4.70;;
70829;SDS011;58451;51.550;7.208;2023-02-28T02:00:18;13.70;;;4.70;;
70829;SDS011;58451;51.550;7.208;2023-02-28T02:01:54;13.20;;;5.10;;
70829;SDS011;58451;51.550;7.208;2023-02-28T02:03:26;14.30;;;4.90;;
70829;SDS011;58451;51.550;7.208;2023-02-28T02:06:49;12.50;;;4.50;;
70829;SDS011;58451;51.550;7.208;2023-02-28T02:08:24;14.90;;;4.50;;
70829;SDS011;58451;51.550;7.208;2023-02-28T02:10:04;13.90;;;4.20;;
70829;SDS011;58451;51.550;7.208;2023-02-28T02:11:43;12.40;;;4.30;;
70829;SDS011;58451;51.550;7.208;2023-02-28T02:13:34;14.40;;;4.40;;
70829;SDS011;58451;51.550;7.208;2023-02-28T02:15:26;13.60;;;4.30;;
70829;SDS011;58451;51.550;7.208;2023-02-28T02:17:28;15.60;;;5.30;;
70829;SDS011;58451;51.550;7.208;2023-02-28T02:19:41;12.40;;;4.50;;
70829;SDS011;58451;51.550;7.208;2023-02-28T02:36:35;15.00;;;5.20;;
70829;SDS011;58451;51.550;7.208;2023-02-28T02:40:22;19.30;;;6.10;;
70829;SDS011;58451;51.550;7.208;2023-02-28T02:42:01;14.70;;;5.40;;
70829;SDS011;58451;51.550;7.208;2023-02-28T02:43:50;16.80;;;5.70;;
70829;SDS011;58451;51.550;7.208;2023-02-28T02:45:46;17.20;;;5.40;;
70829;SDS011;58451;51.550;7.208;2023-02-28T02:47:24;13.40;;;5.60;;
70829;SDS011;58451;51.550;7.208;2023-02-28T02:49:06;16.60;;;6.30;;
70829;SDS011;58451;51.550;7.208;2023-02-28T02:50:54;16.60;;;6.10;;
70829;SDS011;58451;51.550;7.208;2023-02-28T02:52:34;17.90;;;5.90;;
70829;SDS011;58451;51.550;7.208;2023-02-28T02:54:24;19.70;;;6.30;;
70829;SDS011;58451;51.550;7.208;2023-02-28T02:56:09;14.60;;;5.70;;
70829;SDS011;58451;51.550;7.208;2023-02-28T02:57:51;19.10;;;6.00;;
70829;SDS011;58451;51.550;7.208;2023-02-28T02:59:28;16.20;;;5.60;;
70829;SDS011;58451;51.550;7.208;2023-02-28T03:01:03;17.30;;;5.80;;
70829;SDS011;58451;51.550;7.208;2023-02-28T03:02:37;17.40;;;5.40;;
70829;SDS011;58451;51.550;7.208;2023-02-28T03:04:16;17.00;;;5.50;;
70829;SDS011;58451;51.550;7.208;2023-02-28T03:05:51;18.80;;;6.10;;
70829;SDS011;58451;51.550;7.208;2023-02-28T03:07:23;15.80;;;5.70;;
70829;SDS011;58451;51.550;7.208;2023-02-28T03:08:54;16.80;;;6.00;;
70829;SDS011;58451;51.550;7.208;2023-02-28T03:10:46;16.10;;;6.00;;
70829;SDS011;58451;51.550;7.208;2023-02-28T03:12:28;19.30;;;6.20;;
70829;SDS011;58451;51.550;7.208;2023-02-28T03:14:40;17.70;;;6.60;;
70829;SDS011;58451;51.550;7.208;2023-02-28T03:18:10;17.10;;;6.40;;
70829;SDS011;58451;51.550;7.208;2023-02-28T03:20:09;21.60;;;6.80;;
70829;SDS011;58451;51.550;7.208;2023-02-28T03:27:38;17.20;;;6.20;;
70829;SDS011;58451;51.550;7.208;2023-02-28T03:29:35;19.20;;;6.50;;
70829;SDS011;58451;51.550;7.208;2023-02-28T03:31:21;21.50;;;6.30;;
70829;SDS011;58451;51.550;7.208;2023-02-28T03:36:56;17.80;;;7.10;;
70829;SDS011;58451;51.550;7.208;2023-02-28T03:38:36;17.70;;;6.30;;
70829;SDS011;58451;51.550;7.208;2023-02-28T03:40:23;18.00;;;5.80;;
70829;SDS011;58451;51.550;7.208;2023-02-28T03:42:02;19.30;;;6.60;;
70829;SDS011;58451;51.550;7.208;2023-02-28T03:43:43;15.90;;;5.50;;
70829;SDS011;58451;51.550;7.208;2023-02-28T03:45:24;18.10;;;6.40;;
70829;SDS011;58451;51.550;7.208;2023-02-28T03:47:03;16.30;;;6.50;;
70829;SDS011;58451;51.550;7.208;2023-02-28T03:48:51;22.00;;;6.50;;
70829;SDS011;58451;51.550;7.208;2023-02-28T03:50:46;21.80;;;6.70;;
70829;SDS011;58451;51.550;7.208;2023-02-28T03:52:25;19.90;;;7.10;;
70829;SDS011;58451;51.550;7.208;2023-02-28T03:54:08;20.50;;;6.70;;
70829;SDS011;58451;51.550;7.208;2023-02-28T03:55:47;18.10;;;6.30;;
70829;SDS011;58451;51.550;7.208;2023-02-28T03:57:40;17.50;;;6.50;;
70829;SDS011;58451;51.550;7.208;2023-02-28T03:59:26;18.10;;;6.30;;
70829;SDS011;58451;51.550;7.208;2023-02-28T04:01:41;18.20;;;6.60;;
70829;SDS011;58451;51.550;7.208;2023-02-28T04:03:15;21.00;;;6.90;;
70829;SDS011;58451;51.550;7.208;2023-02-28T04:04:47;24.30;;;7.60;;
70829;SDS011;58451;51.550;7.208;2023-02-28T04:06:22;21.80;;;7.40;;
70829;SDS011;58451;51.550;7.208;2023-02-28T04:08:04;21.10;;;7.50;;
70829;SDS011;58451;51.550;7.208;2023-02-28T04:09:37;19.60;;;7.40;;
70829;SDS011;58451;51.550;7.208;2023-02-28T04:11:16;20.70;;;7.70;;
70829;SDS011;58451;51.550;7.208;2023-02-28T04:12:52;24.40;;;8.20;;
70829;SDS011;58451;51.550;7.208;2023-02-28T04:14:25;19.00;;;7.30;;
70829;SDS011;58451;51.550;7.208;2023-02-28T04:15:57;21.90;;;7.30;;
70829;SDS011;58451;51.550;7.208;2023-02-28T04:17:29;20.30;;;7.30;;
70829;SDS011;58451;51.550;7.208;2023-02-28T04:19:02;19.10;;;6.60;;
70829;SDS011;58451;51.550;7.208;2023-02-28T04:20:36;19.10;;;6.50;;
70829;SDS011;58451;51.550;7.208;2023-02-28T04:22:10;19.00;;;6.40;;
70829;SDS011;58451;51.550;7.208;2023-02-28T04:23:42;18.10;;;6.70;;
70829;SDS011;58451;51.550;7.208;2023-02-28T04:25:13;22.00;;;7.50;;
70829;SDS011;58451;51.550;7.208;2023-02-28T04:26:48;22.40;;;7.70;;
70829;SDS011;58451;51.550;7.208;2023-02-28T04:28:22;26.20;;;8.60;;
70829;SDS011;58451;51.550;7.208;2023-02-28T04:29:54;22.30;;;8.50;;
70829;SDS011;58451;51.550;7.208;2023-02-28T04:31:26;24.00;;;7.50;;
70829;SDS011;58451;51.550;7.208;2023-02-28T04:32:59;21.70;;;7.60;;
70829;SDS011;58451;51.550;7.208;2023-02-28T04:34:32;23.70;;;8.70;;
70829;SDS011;58451;51.550;7.208;2023-02-28T04:36:06;22.60;;;7.90;;
70829;SDS011;58451;51.550;7.208;2023-02-28T04:37:39;23.40;;;8.60;;
70829;SDS011;58451;51.550;7.208;2023-02-28T04:39:12;25.60;;;8.60;;
70829;SDS011;58451;51.550;7.208;2023-02-28T04:40:43;27.20;;;9.80;;
70829;SDS011;58451;51.550;7.208;2023-02-28T04:42:15;24.70;;;10.10;;
70829;SDS011;58451;51.550;7.208;2023-02-28T04:43:47;25.20;;;9.70;;
70829;SDS011;58451;51.550;7.208;2023-02-28T04:45:19;20.10;;;8.10;;
70829;SDS011;58451;51.550;7.208;2023-02-28T04:46:50;24.70;;;8.30;;
70829;SDS011;58451;51.550;7.208;2023-02-28T04:48:28;23.70;;;8.00;;
70829;SDS011;58451;51.550;7.208;2023-02-28T04:50:01;21.40;;;7.30;;
70829;SDS011;58451;51.550;7.208;2023-02-28T04:51:33;21.20;;;7.60;;
70829;SDS011;58451;51.550;7.208;2023-02-28T04:53:05;20.60;;;6.90;;
70829;SDS011;58451;51.550;7.208;2023-02-28T04:54:36;20.00;;;7.20;;
70829;SDS011;58451;51.550;7.208;2023-02-28T04:56:13;21.50;;;7.80;;
70829;SDS011;58451;51.550;7.208;2023-02-28T04:57:47;22.60;;;8.10;;
70829;SDS011;58451;51.550;7.208;2023-02-28T04:59:19;18.40;;;7.00;;
70829;SDS011;58451;51.550;7.208;2023-02-28T05:00:52;20.80;;;7.20;;
70829;SDS011;58451;51.550;7.208;2023-02-28T05:02:25;21.20;;;7.90;;
70829;SDS011;58451;51.550;7.208;2023-02-28T05:03:59;21.90;;;7.20;;
70829;SDS011;58451;51.550;7.208;2023-02-28T05:05:32;18.30;;;7.00;;
70829;SDS011;58451;51.550;7.208;2023-02-28T05:07:04;19.70;;;7.70;;
70829;SDS011;58451;51.550;7.208;2023-02-28T05:08:36;19.80;;;7.30;;
70829;SDS011;58451;51.550;7.208;2023-02-28T05:10:10;19.90;;;7.70;;
70829;SDS011;58451;51.550;7.208;2023-02-28T05:11:43;21.50;;;7.10;;
70829;SDS011;58451;51.550;7.208;2023-02-28T05:13:14;19.10;;;7.60;;
70829;SDS011;58451;51.550;7.208;2023-02-28T05:14:46;22.10;;;8.00;;
70829;SDS011;58451;51.550;7.208;2023-02-28T05:16:18;20.70;;;8.00;;
70829;SDS011;58451;51.550;7.208;2023-02-28T05:17:51;19.60;;;7.80;;
70829;SDS011;58451;51.550;7.208;2023-02-28T05:19:22;24.60;;;8.30;;
70829;SDS011;58451;51.550;7.208;2023-02-28T05:20:54;20.60;;;7.50;;
70829;SDS011;58451;51.550;7.208;2023-02-28T05:22:26;21.20;;;6.90;;
70829;SDS011;58451;51.550;7.208;2023-02-28T05:24:01;19.40;;;7.10;;
70829;SDS011;58451;51.550;7.208;2023-02-28T05:25:35;21.30;;;7.40;;
70829;SDS011;58451;51.550;7.208;2023-02-28T05:27:07;20.20;;;7.20;;
70829;SDS011;58451;51.550;7.208;2023-02-28T05:28:40;23.00;;;8.10;;
70829;SDS011;58451;51.550;7.208;2023-02-28T05:30:12;26.30;;;8.60;;
70829;SDS011;58451;51.550;7.208;2023-02-28T05:31:44;21.90;;;8.20;;
70829;SDS011;58451;51.550;7.208;2023-02-28T05:33:16;28.00;;;8.70;;
70829;SDS011;58451;51.550;7.208;2023-02-28T05:34:48;19.80;;;6.90;;
70829;SDS011;58451;51.550;7.208;2023-02-28T05:36:20;20.50;;;7.10;;
70829;SDS011;58451;51.550;7.208;2023-02-28T05:37:52;17.60;;;6.10;;
70829;SDS011;58451;51.550;7.208;2023-02-28T05:39:24;17.70;;;6.70;;
70829;SDS011;58451;51.550;7.208;2023-02-28T05:40:56;19.90;;;6.70;;
70829;SDS011;58451;51.550;7.208;2023-02-28T05:42:27;18.40;;;7.20;;
70829;SDS011;58451;51.550;7.208;2023-02-28T05:44:00;18.10;;;6.30;;
70829;SDS011;58451;51.550;7.208;2023-02-28T05:45:32;20.60;;;7.10;;
70829;SDS011;58451;51.550;7.208;2023-02-28T05:47:04;17.20;;;6.80;;
70829;SDS011;58451;51.550;7.208;2023-02-28T05:48:37;19.20;;;6.60;;
70829;SDS011;58451;51.550;7.208;2023-02-28T05:50:11;21.70;;;7.50;;
70829;SDS011;58451;51.550;7.208;2023-02-28T05:51:43;20.70;;;7.10;;
70829;SDS011;58451;51.550;7.208;2023-02-28T05:53:15;20.90;;;7.50;;
70829;SDS011;58451;51.550;7.208;2023-02-28T05:54:47;21.10;;;6.20;;
70829;SDS011;58451;51.550;7.208;2023-02-28T05:56:19;19.80;;;7.00;;
70829;SDS011;58451;51.550;7.208;2023-02-28T05:57:51;22.80;;;6.70;;
70829;SDS011;58451;51.550;7.208;2023-02-28T05:59:22;22.10;;;6.60;;
70829;SDS011;58451;51.550;7.208;2023-02-28T06:00:54;22.10;;;7.10;;
70829;SDS011;58451;51.550;7.208;2023-02-28T06:02:26;16.60;;;6.60;;
70829;SDS011;58451;51.550;7.208;2023-02-28T06:04:02;16.80;;;6.60;;
70829;SDS011;58451;51.550;7.208;2023-02-28T06:05:35;21.30;;;6.90;;
70829;SDS011;58451;51.550;7.208;2023-02-28T06:07:07;21.10;;;6.90;;
70829;SDS011;58451;51.550;7.208;2023-02-28T06:08:40;17.80;;;6.50;;
70829;SDS011;58451;51.550;7.208;2023-02-28T06:10:14;14.50;;;5.90;;
70829;SDS011;58451;51.550;7.208;2023-02-28T06:11:46;20.30;;;6.10;;
70829;SDS011;58451;51.550;7.208;2023-02-28T06:13:18;16.30;;;5.90;;
70829;SDS011;58451;51.550;7.208;2023-02-28T06:14:50;14.10;;;5.70;;
70829;SDS011;58451;51.550;7.208;2023-02-28T06:16:23;17.50;;;5.80;;
70829;SDS011;58451;51.550;7.208;2023-02-28T06:17:56;16.50;;;5.60;;
70829;SDS011;58451;51.550;7.208;2023-02-28T06:19:28;14.90;;;5.40;;
70829;SDS011;58451;51.550;7.208;2023-02-28T06:21:01;16.10;;;5.60;;
70829;SDS011;58451;51.550;7.208;2023-02-28T06:22:35;14.40;;;4.40;;
70829;SDS011;58451;51.550;7.208;2023-02-28T06:24:08;16.10;;;6.00;;
70829;SDS011;58451;51.550;7.208;2023-02-28T06:25:44;17.30;;;6.30;;
70829;SDS011;58451;51.550;7.208;2023-02-28T06:27:17;21.70;;;5.70;;
70829;SDS011;58451;51.550;7.208;2023-02-28T06:28:50;14.90;;;5.00;;
70829;SDS011;58451;51.550;7.208;2023-02-28T06:30:24;14.70;;;6.20;;
70829;SDS011;58451;51.550;7.208;2023-02-28T06:32:01;17.60;;;6.00;;
70829;SDS011;58451;51.550;7.208;2023-02-28T06:33:33;16.60;;;6.10;;
70829;SDS011;58451;51.550;7.208;2023-02-28T06:35:05;18.00;;;6.30;;
70829;SDS011;58451;51.550;7.208;2023-02-28T06:36:41;17.00;;;6.50;;
70829;SDS011;58451;51.550;7.208;2023-02-28T06:38:14;15.70;;;6.00;;
70829;SDS011;58451;51.550;7.208;2023-02-28T06:39:45;15.70;;;5.90;;
70829;SDS011;58451;51.550;7.208;2023-02-28T06:41:25;18.30;;;6.30;;
70829;SDS011;58451;51.550;7.208;2023-02-28T06:42:59;18.20;;;6.70;;
70829;SDS011;58451;51.550;7.208;2023-02-28T06:44:31;21.00;;;6.00;;
70829;SDS011;58451;51.550;7.208;2023-02-28T06:46:08;17.80;;;6.60;;
70829;SDS011;58451;51.550;7.208;2023-02-28T06:47:45;15.50;;;5.70;;
70829;SDS011;58451;51.550;7.208;2023-02-28T06:49:17;16.80;;;6.40;;
70829;SDS011;58451;51.550;7.208;2023-02-28T06:50:49;18.60;;;6.40;;
70829;SDS011;58451;51.550;7.208;2023-02-28T06:52:23;17.00;;;6.30;;
70829;SDS011;58451;51.550;7.208;2023-02-28T06:53:55;17.80;;;6.40;;
70829;SDS011;58451;51.550;7.208;2023-02-28T06:55:26;14.80;;;5.60;;
70829;SDS011;58451;51.550;7.208;2023-02-28T06:57:01;19.50;;;6.80;;
70829;SDS011;58451;51.550;7.208;2023-02-28T06:58:34;19.60;;;6.50;;
70829;SDS011;58451;51.550;7.208;2023-02-28T07:00:08;18.40;;;6.40;;
70829;SDS011;58451;51.550;7.208;2023-02-28T07:01:41;20.30;;;7.40;;
70829;SDS011;58451;51.550;7.208;2023-02-28T07:03:13;23.20;;;7.60;;
70829;SDS011;58451;51.550;7.208;2023-02-28T07:04:46;17.50;;;6.90;;
70829;SDS011;58451;51.550;7.208;2023-02-28T07:06:19;17.20;;;7.40;;
70829;SDS011;58451;51.550;7.208;2023-02-28T07:07:55;20.10;;;8.00;;
70829;SDS011;58451;51.550;7.208;2023-02-28T07:09:28;21.90;;;7.10;;
70829;SDS011;58451;51.550;7.208;2023-02-28T07:11:01;18.60;;;7.00;;
70829;SDS011;58451;51.550;7.208;2023-02-28T07:12:34;18.90;;;6.80;;
70829;SDS011;58451;51.550;7.208;2023-02-28T07:14:06;21.00;;;7.30;;
70829;SDS011;58451;51.550;7.208;2023-02-28T07:15:38;17.20;;;6.40;;
70829;SDS011;58451;51.550;7.208;2023-02-28T07:17:14;15.10;;;5.30;;
70829;SDS011;58451;51.550;7.208;2023-02-28T07:18:46;17.00;;;5.40;;
70829;SDS011;58451;51.550;7.208;2023-02-28T07:20:18;15.40;;;5.70;;
70829;SDS011;58451;51.550;7.208;2023-02-28T07:21:50;13.50;;;4.90;;
70829;SDS011;58451;51.550;7.208;2023-02-28T07:23:22;15.30;;;4.50;;
70829;SDS011;58451;51.550;7.208;2023-02-28T07:24:54;13.20;;;4.30;;
70829;SDS011;58451;51.550;7.208;2023-02-28T07:26:26;11.90;;;4.20;;
70829;SDS011;58451;51.550;7.208;2023-02-28T07:27:58;12.70;;;4.20;;
70829;SDS011;58451;51.550;7.208;2023-02-28T07:29:30;14.00;;;4.00;;
70829;SDS011;58451;51.550;7.208;2023-02-28T07:31:06;12.50;;;4.00;;
70829;SDS011;58451;51.550;7.208;2023-02-28T07:32:39;12.50;;;4.20;;
70829;SDS011;58451;51.550;7.208;2023-02-28T07:34:11;11.20;;;4.00;;
70829;SDS011;58451;51.550;7.208;2023-02-28T07:35:43;13.20;;;3.90;;
70829;SDS011;58451;51.550;7.208;2023-02-28T07:37:15;11.30;;;4.30;;
70829;SDS011;58451;51.550;7.208;2023-02-28T07:38:48;13.30;;;3.90;;
70829;SDS011;58451;51.550;7.208;2023-02-28T07:40:21;14.10;;;4.40;;
70829;SDS011;58451;51.550;7.208;2023-02-28T07:41:53;9.40;;;3.70;;
70829;SDS011;58451;51.550;7.208;2023-02-28T07:43:30;13.70;;;4.30;;
70829;SDS011;58451;51.550;7.208;2023-02-28T07:45:04;12.00;;;4.00;;
70829;SDS011;58451;51.550;7.208;2023-02-28T07:46:38;9.40;;;3.50;;
70829;SDS011;58451;51.550;7.208;2023-02-28T07:48:11;13.20;;;3.50;;
70829;SDS011;58451;51.550;7.208;2023-02-28T07:49:45;11.10;;;3.70;;
70829;SDS011;58451;51.550;7.208;2023-02-28T07:51:17;11.80;;;3.80;;
70829;SDS011;58451;51.550;7.208;2023-02-28T07:52:49;12.60;;;3.90;;
70829;SDS011;58451;51.550;7.208;2023-02-28T07:54:21;11.80;;;3.40;;
70829;SDS011;58451;51.550;7.208;2023-02-28T07:56:03;21.40;;;3.90;;
70829;SDS011;58451;51.550;7.208;2023-02-28T07:57:35;10.30;;;3.90;;
70829;SDS011;58451;51.550;7.208;2023-02-28T07:59:08;11.50;;;3.70;;
70829;SDS011;58451;51.550;7.208;2023-02-28T08:00:40;11.40;;;3.70;;
70829;SDS011;58451;51.550;7.208;2023-02-28T08:02:14;11.40;;;4.00;;
70829;SDS011;58451;51.550;7.208;2023-02-28T08:03:47;12.90;;;4.10;;
70829;SDS011;58451;51.550;7.208;2023-02-28T08:05:19;11.90;;;4.10;;
70829;SDS011;58451;51.550;7.208;2023-02-28T08:06:52;10.00;;;4.20;;
70829;SDS011;58451;51.550;7.208;2023-02-28T08:08:24;11.70;;;4.00;;
70829;SDS011;58451;51.550;7.208;2023-02-28T08:10:00;16.30;;;4.30;;
70829;SDS011;58451;51.550;7.208;2023-02-28T08:11:33;12.30;;;4.60;;
70829;SDS011;58451;51.550;7.208;2023-02-28T08:13:04;11.50;;;4.80;;
70829;SDS011;58451;51.550;7.208;2023-02-28T08:14:37;10.60;;;4.40;;
70829;SDS011;58451;51.550;7.208;2023-02-28T08:16:10;12.70;;;4.60;;
70829;SDS011;58451;51.550;7.208;2023-02-28T08:17:46;12.70;;;4.60;;
70829;SDS011;58451;51.550;7.208;2023-02-28T08:19:18;15.10;;;5.10;;
70829;SDS011;58451;51.550;7.208;2023-02-28T08:20:50;18.30;;;5.30;;
70829;SDS011;58451;51.550;7.208;2023-02-28T08:22:24;17.80;;;5.00;;
70829;SDS011;58451;51.550;7.208;2023-02-28T08:23:55;15.30;;;5.20;;
70829;SDS011;58451;51.550;7.208;2023-02-28T08:25:28;16.20;;;5.40;;
70829;SDS011;58451;51.550;7.208;2023-02-28T08:27:00;17.20;;;5.90;;
70829;SDS011;58451;51.550;7.208;2023-02-28T08:28:32;14.20;;;4.80;;
70829;SDS011;58451;51.550;7.208;2023-02-28T08:30:04;14.50;;;4.50;;
70829;SDS011;58451;51.550;7.208;2023-02-28T08:31:37;12.50;;;4.50;;
70829;SDS011;58451;51.550;7.208;2023-02-28T08:33:09;11.50;;;3.60;;
70829;SDS011;58451;51.550;7.208;2023-02-28T08:34:41;12.80;;;3.70;;
70829;SDS011;58451;51.550;7.208;2023-02-28T08:36:14;9.90;;;3.90;;
70829;SDS011;58451;51.550;7.208;2023-02-28T08:37:50;12.50;;;3.40;;
70829;SDS011;58451;51.550;7.208;2023-02-28T08:39:22;11.40;;;4.30;;
70829;SDS011;58451;51.550;7.208;2023-02-28T08:40:58;13.60;;;4.20;;
70829;SDS011;58451;51.550;7.208;2023-02-28T08:42:35;11.10;;;3.70;;
70829;SDS011;58451;51.550;7.208;2023-02-28T08:44:07;11.20;;;4.10;;
70829;SDS011;58451;51.550;7.208;2023-02-28T08:45:39;11.20;;;3.90;;
70829;SDS011;58451;51.550;7.208;2023-02-28T08:47:11;13.20;;;3.50;;
70829;SDS011;58451;51.550;7.208;2023-02-28T08:48:43;12.00;;;3.90;;
70829;SDS011;58451;51.550;7.208;2023-02-28T08:50:15;12.00;;;3.90;;
70829;SDS011;58451;51.550;7.208;2023-02-28T08:51:48;12.30;;;3.70;;
70829;SDS011;58451;51.550;7.208;2023-02-28T08:53:19;12.10;;;4.50;;
70829;SDS011;58451;51.550;7.208;2023-02-28T08:54:51;11.80;;;4.00;;
70829;SDS011;58451;51.550;7.208;2023-02-28T08:56:23;11.30;;;3.70;;
70829;SDS011;58451;51.550;7.208;2023-02-28T08:57:55;11.80;;;3.90;;
70829;SDS011;58451;51.550;7.208;2023-02-28T08:59:27;10.80;;;3.70;;
70829;SDS011;58451;51.550;7.208;2023-02-28T09:00:58;12.50;;;4.10;;
70829;SDS011;58451;51.550;7.208;2023-02-28T09:02:31;10.50;;;3.60;;
70829;SDS011;58451;51.550;7.208;2023-02-28T09:04:03;9.30;;;3.90;;
70829;SDS011;58451;51.550;7.208;2023-02-28T09:05:35;11.10;;;3.80;;
70829;SDS011;58451;51.550;7.208;2023-02-28T09:07:08;12.50;;;4.00;;
70829;SDS011;58451;51.550;7.208;2023-02-28T09:08:40;11.80;;;4.20;;
70829;SDS011;58451;51.550;7.208;2023-02-28T09:10:12;12.70;;;4.40;;
70829;SDS011;58451;51.550;7.208;2023-02-28T09:11:44;10.20;;;4.00;;
70829;SDS011;58451;51.550;7.208;2023-02-28T09:13:17;11.20;;;4.60;;
70829;SDS011;58451;51.550;7.208;2023-02-28T09:14:51;13.90;;;4.80;;
70829;SDS011;58451;51.550;7.208;2023-02-28T09:16:23;9.00;;;3.60;;
70829;SDS011;58451;51.550;7.208;2023-02-28T09:17:56;14.50;;;4.70;;
70829;SDS011;58451;51.550;7.208;2023-02-28T09:19:28;10.10;;;4.00;;
70829;SDS011;58451;51.550;7.208;2023-02-28T09:21:05;11.00;;;4.20;;
70829;SDS011;58451;51.550;7.208;2023-02-28T09:22:38;10.00;;;4.50;;
70829;SDS011;58451;51.550;7.208;2023-02-28T09:24:10;11.20;;;3.90;;
70829;SDS011;58451;51.550;7.208;2023-02-28T09:25:49;12.30;;;4.60;;
70829;SDS011;58451;51.550;7.208;2023-02-28T09:27:23;11.80;;;4.80;;
70829;SDS011;58451;51.550;7.208;2023-02-28T09:28:55;11.80;;;4.00;;
70829;SDS011;58451;51.550;7.208;2023-02-28T09:30:31;9.60;;;3.70;;
70829;SDS011;58451;51.550;7.208;2023-02-28T09:32:03;8.60;;;4.00;;
70829;SDS011;58451;51.550;7.208;2023-02-28T09:33:37;10.20;;;3.00;;
70829;SDS011;58451;51.550;7.208;2023-02-28T09:35:09;10.00;;;3.50;;
70829;SDS011;58451;51.550;7.208;2023-02-28T09:36:44;8.00;;;3.10;;
70829;SDS011;58451;51.550;7.208;2023-02-28T09:38:17;9.70;;;3.20;;
70829;SDS011;58451;51.550;7.208;2023-02-28T09:39:49;9.00;;;3.10;;
70829;SDS011;58451;51.550;7.208;2023-02-28T09:41:24;7.80;;;2.60;;
70829;SDS011;58451;51.550;7.208;2023-02-28T09:43:00;6.50;;;2.50;;
70829;SDS011;58451;51.550;7.208;2023-02-28T09:44:36;6.00;;;2.20;;
70829;SDS011;58451;51.550;7.208;2023-02-28T09:48:03;7.80;;;2.40;;
70829;SDS011;58451;51.550;7.208;2023-02-28T09:49:44;9.70;;;2.60;;
70829;SDS011;58451;51.550;7.208;2023-02-28T09:53:31;9.90;;;2.80;;
70829;SDS011;58451;51.550;7.208;2023-02-28T09:55:31;6.40;;;2.20;;
70829;SDS011;58451;51.550;7.208;2023-02-28T10:03:26;3.90;;;1.10;;
70829;SDS011;58451;51.550;7.208;2023-02-28T10:05:08;6.00;;;1.50;;
70829;SDS011;58451;51.550;7.208;2023-02-28T10:06:51;5.30;;;1.50;;
70829;SDS011;58451;51.550;7.208;2023-02-28T10:08:31;4.30;;;1.20;;